Melton Hill Observed Data For Previous 48 Hours

Caption
Day and Hour Reservoir Elevation (behind dam)* Tailwater Elevation (below dam)* Average Hourly Discharge*
4/22/2018 2 AM EDT 794.16 740.29 0
4/22/2018 3 AM EDT 794.17 740.24 0
4/22/2018 4 AM EDT 794.17 740.31 0
4/22/2018 5 AM EDT 794.20 740.18 0
4/22/2018 6 AM EDT 794.19 740.05 0
4/22/2018 7 AM EDT 794.22 740.26 0
4/22/2018 8 AM EDT 794.22 740.57 0
4/22/2018 9 AM EDT 794.23 740.42 0
4/22/2018 10 AM EDT 794.25 739.97 0
4/22/2018 11 AM EDT 794.27 739.98 0
4/22/2018 12 PM EDT 794.30 740.12 0
4/22/2018 1 PM EDT 794.30 740.44 0
4/22/2018 2 PM EDT 794.29 740.32 0
4/22/2018 3 PM EDT 794.30 740.25 0
4/22/2018 4 PM EDT 794.31 740.29 0
4/22/2018 5 PM EDT 794.34 740.29 0
4/22/2018 6 PM EDT 794.35 740.26 0
4/22/2018 7 PM EDT 794.28 740.15 1,300
4/22/2018 8 PM EDT 794.30 740.37 1,349
4/22/2018 9 PM EDT 794.19 740.88 6,079
4/22/2018 10 PM EDT 794.17 740.80 6,535
4/22/2018 11 PM EDT 794.10 740.73 6,515
4/23/2018 12 AM EDT 794.02 740.64 6,519
4/23/2018 1 AM EDT 793.91 740.69 6,517
4/23/2018 2 AM EDT 793.99 740.09 234
4/23/2018 3 AM EDT 793.94 740.13 0
4/23/2018 4 AM EDT 793.98 740.41 0
4/23/2018 5 AM EDT 794.03 740.48 0
4/23/2018 6 AM EDT 794.03 740.34 0
4/23/2018 7 AM EDT 794.04 740.29 0
4/23/2018 8 AM EDT 794.05 740.25 0
4/23/2018 9 AM EDT 793.99 740.06 0
4/23/2018 10 AM EDT 794.01 740.00 0
4/23/2018 11 AM EDT 794.11 740.26 0
4/23/2018 12 PM EDT 794.17 740.31 0
4/23/2018 1 PM EDT 794.15 740.23 0
4/23/2018 2 PM EDT 794.16 740.00 0
4/23/2018 3 PM EDT 794.17 740.02 0
4/23/2018 4 PM EDT 794.14 740.26 227
4/23/2018 5 PM EDT 794.12 740.21 502
4/23/2018 6 PM EDT 794.03 740.63 6,119
4/23/2018 7 PM EDT 794.01 740.53 6,554
4/23/2018 8 PM EDT 793.94 740.50 6,535
4/23/2018 9 PM EDT 793.87 740.43 6,537
4/23/2018 10 PM EDT 793.75 740.40 6,518
4/23/2018 11 PM EDT 793.67 740.35 6,516
4/24/2018 12 AM EDT 793.74 739.73 206
4/24/2018 1 AM EDT 793.76 739.96 0
4/24/2018 2 AM EDT 793.74 740.33 0
4/24/2018 3 AM EDT 793.78 740.47 0
4/24/2018 4 AM EDT 793.78 740.29 0
4/24/2018 5 AM EDT 793.83 740.15 0
4/24/2018 6 AM EDT 793.87 740.41 0
4/24/2018 7 AM EDT 793.84 740.51 0
4/24/2018 8 AM EDT 793.90 740.64 0
4/24/2018 9 AM EDT 793.98 740.72 0
4/24/2018 10 AM EDT 794.07 740.89 0
4/24/2018 11 AM EDT 794.10 740.80 0
4/24/2018 12 PM EDT 794.13 740.78 0
4/24/2018 1 PM EDT 794.15 740.95 0
4/24/2018 2 PM EDT 794.20 741.14 0
4/24/2018 3 PM EDT 794.25 741.19 0
4/24/2018 4 PM EDT 794.29 741.22 0
4/24/2018 5 PM EDT 794.34 741.23 0
4/24/2018 6 PM EDT 794.34 741.34 131
4/24/2018 7 PM EDT 794.30 741.93 6,216
4/24/2018 8 PM EDT 794.25 741.87 6,493
4/24/2018 9 PM EDT 794.25 741.77 6,508
4/24/2018 10 PM EDT 794.18 741.84 6,515

Elevations are in feet above sea level. Discharges are in cubic feet per second and are reported at the end of the hour.